sensor_id;sensor_type;location;lat;lon;timestamp;pressure;altitude;pressure_sealevel;temperature;humidity
51849;BME280;38952;51.090;-1.832;2023-03-15T00:01:15;100207.22;;;1.15;100.00
51849;BME280;38952;51.090;-1.832;2023-03-15T00:03:47;100195.03;;;1.13;100.00
51849;BME280;38952;51.090;-1.832;2023-03-15T00:06:36;100173.69;;;0.98;100.00
51849;BME280;38952;51.090;-1.832;2023-03-15T00:09:02;100177.44;;;0.97;100.00
51849;BME280;38952;51.090;-1.832;2023-03-15T00:11:37;100214.28;;;1.16;100.00
51849;BME280;38952;51.090;-1.832;2023-03-15T00:14:19;100180.75;;;0.85;100.00
51849;BME280;38952;51.090;-1.832;2023-03-15T00:16:45;100210.97;;;1.01;100.00
51849;BME280;38952;51.090;-1.832;2023-03-15T00:25:51;100217.63;;;0.85;100.00
51849;BME280;38952;51.090;-1.832;2023-03-15T00:28:17;100225.88;;;0.90;100.00
51849;BME280;38952;51.090;-1.832;2023-03-15T00:30:43;100219.25;;;0.86;100.00
51849;BME280;38952;51.090;-1.832;2023-03-15T00:33:15;100213.47;;;0.82;100.00
51849;BME280;38952;51.090;-1.832;2023-03-15T00:35:43;100230.84;;;0.93;100.00
51849;BME280;38952;51.090;-1.832;2023-03-15T00:38:18;100216.16;;;0.82;100.00
51849;BME280;38952;51.090;-1.832;2023-03-15T00:40:43;100246.38;;;0.98;100.00
51849;BME280;38952;51.090;-1.832;2023-03-15T00:43:19;100206.41;;;0.68;100.00
51849;BME280;38952;51.090;-1.832;2023-03-15T00:46:02;100254.47;;;0.98;100.00
51849;BME280;38952;51.090;-1.832;2023-03-15T00:48:28;100236.66;;;0.83;100.00
51849;BME280;38952;51.090;-1.832;2023-03-15T00:51:05;100238.31;;;0.84;100.00
51849;BME280;38952;51.090;-1.832;2023-03-15T00:53:32;100246.59;;;0.90;100.00
51849;BME280;38952;51.090;-1.832;2023-03-15T00:56:07;100241.84;;;0.85;100.00
51849;BME280;38952;51.090;-1.832;2023-03-15T00:58:40;100235.41;;;0.79;100.00
51849;BME280;38952;51.090;-1.832;2023-03-15T01:01:11;100244.09;;;0.81;100.00
51849;BME280;38952;51.090;-1.832;2023-03-15T01:03:41;100256.13;;;0.85;100.00
51849;BME280;38952;51.090;-1.832;2023-03-15T01:06:08;100225.06;;;0.63;100.00
51849;BME280;38952;51.090;-1.832;2023-03-15T01:08:34;100232.31;;;0.69;100.00
51849;BME280;38952;51.090;-1.832;2023-03-15T01:11:13;100232.50;;;0.67;100.00
51849;BME280;38952;51.090;-1.832;2023-03-15T01:13:39;100233.34;;;0.68;100.00
51849;BME280;38952;51.090;-1.832;2023-03-15T01:16:09;100249.28;;;0.76;100.00
51849;BME280;38952;51.090;-1.832;2023-03-15T01:18:40;100249.91;;;0.72;100.00
51849;BME280;38952;51.090;-1.832;2023-03-15T01:21:10;100254.03;;;0.74;100.00
51849;BME280;38952;51.090;-1.832;2023-03-15T01:23:39;100271.47;;;0.85;100.00
51849;BME280;38952;51.090;-1.832;2023-03-15T01:26:07;100279.31;;;0.86;100.00
51849;BME280;38952;51.090;-1.832;2023-03-15T01:28:38;100254.25;;;0.73;100.00
51849;BME280;38952;51.090;-1.832;2023-03-15T01:31:04;100249.06;;;0.71;100.00
51849;BME280;38952;51.090;-1.832;2023-03-15T01:33:30;100265.22;;;0.71;100.00
51849;BME280;38952;51.090;-1.832;2023-03-15T01:36:02;100276.22;;;0.76;100.00
51849;BME280;38952;51.090;-1.832;2023-03-15T01:38:28;100288.19;;;0.80;100.00
51849;BME280;38952;51.090;-1.832;2023-03-15T01:40:56;100276.81;;;0.78;100.00
51849;BME280;38952;51.090;-1.832;2023-03-15T01:43:27;100290.50;;;0.83;100.00
51849;BME280;38952;51.090;-1.832;2023-03-15T01:46:01;100300.44;;;0.83;100.00
51849;BME280;38952;51.090;-1.832;2023-03-15T01:48:47;100308.50;;;0.83;100.00
51849;BME280;38952;51.090;-1.832;2023-03-15T01:51:23;100280.94;;;0.61;100.00
51849;BME280;38952;51.090;-1.832;2023-03-15T01:54:16;100308.69;;;0.68;100.00
51849;BME280;38952;51.090;-1.832;2023-03-15T01:57:05;100287.56;;;0.51;100.00
51849;BME280;38952;51.090;-1.832;2023-03-15T01:59:38;100297.66;;;0.49;100.00
51849;BME280;38952;51.090;-1.832;2023-03-15T02:02:05;100296.19;;;0.40;100.00
51849;BME280;38952;51.090;-1.832;2023-03-15T02:04:51;100286.88;;;0.29;100.00
51849;BME280;38952;51.090;-1.832;2023-03-15T02:07:20;100286.22;;;0.27;100.00
51849;BME280;38952;51.090;-1.832;2023-03-15T02:10:14;100300.53;;;0.28;100.00
51849;BME280;38952;51.090;-1.832;2023-03-15T02:12:45;100288.66;;;0.15;100.00
51849;BME280;38952;51.090;-1.832;2023-03-15T02:15:12;100288.25;;;0.19;100.00
51849;BME280;38952;51.090;-1.832;2023-03-15T02:17:43;100285.97;;;0.15;100.00
51849;BME280;38952;51.090;-1.832;2023-03-15T02:22:39;100287.03;;;0.21;100.00
51849;BME280;38952;51.090;-1.832;2023-03-15T02:26:00;100299.06;;;0.32;100.00
51849;BME280;38952;51.090;-1.832;2023-03-15T02:28:16;100282.88;;;0.19;100.00
51849;BME280;38952;51.090;-1.832;2023-03-15T02:30:43;100289.31;;;0.24;100.00
51849;BME280;38952;51.090;-1.832;2023-03-15T02:33:27;100305.91;;;0.28;100.00
51849;BME280;38952;51.090;-1.832;2023-03-15T02:36:28;100301.75;;;0.25;100.00
51849;BME280;38952;51.090;-1.832;2023-03-15T02:38:55;100300.06;;;0.24;100.00
51849;BME280;38952;51.090;-1.832;2023-03-15T02:41:25;100291.97;;;0.17;100.00
51849;BME280;38952;51.090;-1.832;2023-03-15T02:43:55;100310.63;;;0.26;100.00
51849;BME280;38952;51.090;-1.832;2023-03-15T02:46:22;100304.41;;;0.19;100.00
51849;BME280;38952;51.090;-1.832;2023-03-15T02:48:49;100309.38;;;0.22;100.00
51849;BME280;38952;51.090;-1.832;2023-03-15T02:51:38;100300.69;;;0.20;100.00
51849;BME280;38952;51.090;-1.832;2023-03-15T02:54:06;100278.72;;;0.09;100.00
51849;BME280;38952;51.090;-1.832;2023-03-15T02:56:31;100274.75;;;0.05;100.00
51849;BME280;38952;51.090;-1.832;2023-03-15T02:58:58;100288.22;;;0.05;100.00
51849;BME280;38952;51.090;-1.832;2023-03-15T03:01:23;100267.25;;;-0.06;100.00
51849;BME280;38952;51.090;-1.832;2023-03-15T03:03:49;100282.00;;;0.05;100.00
51849;BME280;38952;51.090;-1.832;2023-03-15T03:06:16;100282.81;;;0.05;100.00
51849;BME280;38952;51.090;-1.832;2023-03-15T03:08:42;100286.53;;;0.04;100.00
51849;BME280;38952;51.090;-1.832;2023-03-15T03:11:16;100291.50;;;0.01;100.00
51849;BME280;38952;51.090;-1.832;2023-03-15T03:13:45;100286.13;;;0.01;100.00
51849;BME280;38952;51.090;-1.832;2023-03-15T03:16:13;100261.66;;;-0.11;100.00
51849;BME280;38952;51.090;-1.832;2023-03-15T03:18:39;100292.31;;;-0.06;100.00
51849;BME280;38952;51.090;-1.832;2023-03-15T03:21:06;100292.88;;;-0.10;100.00
51849;BME280;38952;51.090;-1.832;2023-03-15T03:23:34;100304.69;;;-0.05;100.00
51849;BME280;38952;51.090;-1.832;2023-03-15T03:26:00;100317.56;;;0.00;100.00
51849;BME280;38952;51.090;-1.832;2023-03-15T03:28:28;100293.06;;;-0.12;100.00
51849;BME280;38952;51.090;-1.832;2023-03-15T03:30:57;100291.00;;;-0.16;100.00
51849;BME280;38952;51.090;-1.832;2023-03-15T03:33:23;100309.59;;;-0.22;100.00
51849;BME280;38952;51.090;-1.832;2023-03-15T03:35:49;100319.22;;;-0.34;100.00
51849;BME280;38952;51.090;-1.832;2023-03-15T03:38:14;100316.44;;;-0.47;100.00
51849;BME280;38952;51.090;-1.832;2023-03-15T03:40:40;100328.84;;;-0.46;100.00
51849;BME280;38952;51.090;-1.832;2023-03-15T03:43:07;100310.28;;;-0.69;100.00
51849;BME280;38952;51.090;-1.832;2023-03-15T03:45:32;100334.75;;;-0.58;100.00
51849;BME280;38952;51.090;-1.832;2023-03-15T03:47:58;100302.56;;;-0.79;100.00
51849;BME280;38952;51.090;-1.832;2023-03-15T03:50:23;100321.63;;;-0.74;100.00
51849;BME280;38952;51.090;-1.832;2023-03-15T03:52:49;100332.19;;;-0.66;100.00
51849;BME280;38952;51.090;-1.832;2023-03-15T03:55:15;100340.91;;;-0.64;100.00
51849;BME280;38952;51.090;-1.832;2023-03-15T03:57:41;100340.25;;;-0.66;100.00
51849;BME280;38952;51.090;-1.832;2023-03-15T04:00:22;100328.63;;;-0.73;100.00
51849;BME280;38952;51.090;-1.832;2023-03-15T04:02:50;100319.53;;;-0.79;100.00
51849;BME280;38952;51.090;-1.832;2023-03-15T04:05:18;100301.25;;;-0.90;100.00
51849;BME280;38952;51.090;-1.832;2023-03-15T04:07:44;100309.59;;;-0.78;100.00
51849;BME280;38952;51.090;-1.832;2023-03-15T04:10:10;100303.78;;;-0.82;100.00
51849;BME280;38952;51.090;-1.832;2023-03-15T04:12:41;100312.03;;;-0.83;100.00
51849;BME280;38952;51.090;-1.832;2023-03-15T04:15:06;100332.28;;;-0.81;100.00
51849;BME280;38952;51.090;-1.832;2023-03-15T04:17:32;100333.97;;;-0.80;100.00
51849;BME280;38952;51.090;-1.832;2023-03-15T04:20:05;100325.22;;;-0.89;100.00
51849;BME280;38952;51.090;-1.832;2023-03-15T04:22:32;100341.81;;;-0.78;100.00
51849;BME280;38952;51.090;-1.832;2023-03-15T04:25:01;100324.56;;;-0.91;100.00
51849;BME280;38952;51.090;-1.832;2023-03-15T04:27:28;100333.06;;;-0.87;100.00
51849;BME280;38952;51.090;-1.832;2023-03-15T04:29:53;100321.63;;;-0.96;100.00
51849;BME280;38952;51.090;-1.832;2023-03-15T04:32:21;100326.00;;;-0.95;100.00
51849;BME280;38952;51.090;-1.832;2023-03-15T04:34:49;100318.06;;;-1.03;100.00
51849;BME280;38952;51.090;-1.832;2023-03-15T04:37:20;100344.41;;;-0.92;100.00
51849;BME280;38952;51.090;-1.832;2023-03-15T04:39:53;100327.59;;;-1.00;100.00
51849;BME280;38952;51.090;-1.832;2023-03-15T04:42:29;100333.38;;;-0.97;100.00
51849;BME280;38952;51.090;-1.832;2023-03-15T04:44:54;100325.91;;;-1.01;100.00
51849;BME280;38952;51.090;-1.832;2023-03-15T04:47:19;100321.38;;;-1.01;100.00
51849;BME280;38952;51.090;-1.832;2023-03-15T04:49:46;100329.69;;;-0.96;100.00
51849;BME280;38952;51.090;-1.832;2023-03-15T04:52:15;100323.44;;;-1.03;100.00
51849;BME280;38952;51.090;-1.832;2023-03-15T04:54:40;100341.72;;;-0.92;100.00
51849;BME280;38952;51.090;-1.832;2023-03-15T04:57:05;100337.97;;;-0.91;100.00
51849;BME280;38952;51.090;-1.832;2023-03-15T04:59:31;100338.88;;;-0.83;100.00
51849;BME280;38952;51.090;-1.832;2023-03-15T05:01:56;100317.78;;;-0.86;100.00
51849;BME280;38952;51.090;-1.832;2023-03-15T05:04:22;100351.66;;;-0.64;100.00
51849;BME280;38952;51.090;-1.832;2023-03-15T05:06:47;100333.63;;;-0.70;100.00
51849;BME280;38952;51.090;-1.832;2023-03-15T05:09:15;100319.75;;;-0.74;100.00
51849;BME280;38952;51.090;-1.832;2023-03-15T05:11:44;100335.34;;;-0.62;100.00
51849;BME280;38952;51.090;-1.832;2023-03-15T05:14:12;100336.84;;;-0.53;100.00
51849;BME280;38952;51.090;-1.832;2023-03-15T05:16:38;100316.34;;;-0.61;100.00
51849;BME280;38952;51.090;-1.832;2023-03-15T05:19:06;100322.16;;;-0.57;100.00
51849;BME280;38952;51.090;-1.832;2023-03-15T05:21:36;100337.13;;;-0.48;100.00
51849;BME280;38952;51.090;-1.832;2023-03-15T05:24:01;100333.38;;;-0.47;100.00
51849;BME280;38952;51.090;-1.832;2023-03-15T05:26:28;100330.50;;;-0.45;100.00
51849;BME280;38952;51.090;-1.832;2023-03-15T05:28:56;100337.94;;;-0.47;100.00
51849;BME280;38952;51.090;-1.832;2023-03-15T05:31:21;100352.44;;;-0.42;100.00
51849;BME280;38952;51.090;-1.832;2023-03-15T05:33:46;100358.22;;;-0.45;100.00
51849;BME280;38952;51.090;-1.832;2023-03-15T05:36:14;100360.63;;;-0.50;100.00
51849;BME280;38952;51.090;-1.832;2023-03-15T05:38:47;100354.66;;;-0.52;100.00
51849;BME280;38952;51.090;-1.832;2023-03-15T05:41:13;100352.78;;;-0.51;100.00
51849;BME280;38952;51.090;-1.832;2023-03-15T05:43:42;100379.38;;;-0.35;100.00
51849;BME280;38952;51.090;-1.832;2023-03-15T05:46:07;100374.75;;;-0.41;100.00
51849;BME280;38952;51.090;-1.832;2023-03-15T05:48:38;100364.81;;;-0.47;100.00
51849;BME280;38952;51.090;-1.832;2023-03-15T05:51:04;100384.75;;;-0.35;100.00
51849;BME280;38952;51.090;-1.832;2023-03-15T05:53:29;100372.28;;;-0.43;100.00
51849;BME280;38952;51.090;-1.832;2023-03-15T05:55:55;100365.25;;;-0.44;100.00
51849;BME280;38952;51.090;-1.832;2023-03-15T05:58:20;100378.72;;;-0.37;100.00
51849;BME280;38952;51.090;-1.832;2023-03-15T06:00:53;100371.84;;;-0.46;100.00
51849;BME280;38952;51.090;-1.832;2023-03-15T06:03:18;100396.75;;;-0.31;100.00
51849;BME280;38952;51.090;-1.832;2023-03-15T06:05:44;100389.06;;;-0.34;100.00
51849;BME280;38952;51.090;-1.832;2023-03-15T06:08:09;100383.91;;;-0.36;100.00
51849;BME280;38952;51.090;-1.832;2023-03-15T06:10:35;100359.03;;;-0.44;100.00
51849;BME280;38952;51.090;-1.832;2023-03-15T06:13:02;100370.03;;;-0.39;100.00
51849;BME280;38952;51.090;-1.832;2023-03-15T06:15:31;100361.59;;;-0.36;100.00
51849;BME280;38952;51.090;-1.832;2023-03-15T06:17:59;100380.88;;;-0.26;100.00
51849;BME280;38952;51.090;-1.832;2023-03-15T06:20:25;100381.09;;;-0.21;100.00
51849;BME280;38952;51.090;-1.832;2023-03-15T06:22:51;100368.47;;;-0.27;100.00
51849;BME280;38952;51.090;-1.832;2023-03-15T06:25:19;100389.44;;;-0.15;100.00
51849;BME280;38952;51.090;-1.832;2023-03-15T06:27:54;100374.72;;;-0.20;100.00
51849;BME280;38952;51.090;-1.832;2023-03-15T06:30:29;100373.25;;;-0.22;100.00
51849;BME280;38952;51.090;-1.832;2023-03-15T06:32:55;100399.38;;;-0.09;100.00
51849;BME280;38952;51.090;-1.832;2023-03-15T06:35:20;100400.66;;;-0.05;100.00
51849;BME280;38952;51.090;-1.832;2023-03-15T06:37:46;100412.28;;;0.02;100.00
51849;BME280;38952;51.090;-1.832;2023-03-15T06:40:15;100381.59;;;-0.10;100.00
51849;BME280;38952;51.090;-1.832;2023-03-15T06:42:43;100384.09;;;-0.09;100.00
51849;BME280;38952;51.090;-1.832;2023-03-15T06:45:09;100406.50;;;0.05;100.00
51849;BME280;38952;51.090;-1.832;2023-03-15T06:47:34;100378.75;;;-0.02;100.00
51849;BME280;38952;51.090;-1.832;2023-03-15T06:50:03;100417.34;;;0.19;100.00
51849;BME280;38952;51.090;-1.832;2023-03-15T06:52:28;100412.63;;;0.27;100.00
51849;BME280;38952;51.090;-1.832;2023-03-15T06:54:54;100413.31;;;0.36;100.00
51849;BME280;38952;51.090;-1.832;2023-03-15T06:57:19;100407.50;;;0.32;100.00
51849;BME280;38952;51.090;-1.832;2023-03-15T07:00:02;100403.34;;;0.30;100.00
51849;BME280;38952;51.090;-1.832;2023-03-15T07:02:31;100415.41;;;0.41;100.00
51849;BME280;38952;51.090;-1.832;2023-03-15T07:05:02;100425.00;;;0.57;100.00
51849;BME280;38952;51.090;-1.832;2023-03-15T07:07:28;100405.38;;;0.63;100.00
51849;BME280;38952;51.090;-1.832;2023-03-15T07:09:53;100409.53;;;0.72;100.00
51849;BME280;38952;51.090;-1.832;2023-03-15T07:12:19;100422.03;;;0.93;100.00
51849;BME280;38952;51.090;-1.832;2023-03-15T07:14:46;100436.41;;;1.20;100.00
51849;BME280;38952;51.090;-1.832;2023-03-15T07:17:15;100426.06;;;1.31;100.00
51849;BME280;38952;51.090;-1.832;2023-03-15T07:19:43;100432.28;;;1.51;100.00
51849;BME280;38952;51.090;-1.832;2023-03-15T07:22:16;100428.78;;;1.78;100.00
51849;BME280;38952;51.090;-1.832;2023-03-15T07:24:42;100445.16;;;1.96;100.00
51849;BME280;38952;51.090;-1.832;2023-03-15T07:27:13;100441.81;;;2.14;100.00
51849;BME280;38952;51.090;-1.832;2023-03-15T07:29:38;100424.56;;;2.29;100.00
51849;BME280;38952;51.090;-1.832;2023-03-15T07:32:13;100444.22;;;2.56;100.00
51849;BME280;38952;51.090;-1.832;2023-03-15T07:34:39;100447.69;;;2.70;99.66
51849;BME280;38952;51.090;-1.832;2023-03-15T07:37:04;100444.19;;;2.62;99.09
51849;BME280;38952;51.090;-1.832;2023-03-15T07:39:32;100437.16;;;2.61;99.84
51849;BME280;38952;51.090;-1.832;2023-03-15T07:42:00;100451.63;;;2.74;100.00
51849;BME280;38952;51.090;-1.832;2023-03-15T07:44:25;100432.94;;;2.72;100.00
51849;BME280;38952;51.090;-1.832;2023-03-15T07:46:53;100432.66;;;2.87;99.71
51849;BME280;38952;51.090;-1.832;2023-03-15T07:49:20;100444.34;;;3.20;99.19
51849;BME280;38952;51.090;-1.832;2023-03-15T07:51:45;100439.28;;;3.30;97.87
51849;BME280;38952;51.090;-1.832;2023-03-15T07:54:22;100436.75;;;3.42;97.44
51849;BME280;38952;51.090;-1.832;2023-03-15T07:56:47;100428.91;;;3.59;97.14
51849;BME280;38952;51.090;-1.832;2023-03-15T07:59:20;100423.25;;;3.67;96.51
51849;BME280;38952;51.090;-1.832;2023-03-15T08:01:51;100424.88;;;3.93;94.96
51849;BME280;38952;51.090;-1.832;2023-03-15T08:04:16;100410.78;;;4.10;93.84
51849;BME280;38952;51.090;-1.832;2023-03-15T08:07:03;100402.53;;;4.42;93.06
51849;BME280;38952;51.090;-1.832;2023-03-15T08:09:28;100420.66;;;4.60;90.99
51849;BME280;38952;51.090;-1.832;2023-03-15T08:11:54;100414.66;;;4.58;91.31
51849;BME280;38952;51.090;-1.832;2023-03-15T08:14:29;100411.41;;;4.49;91.71
51849;BME280;38952;51.090;-1.832;2023-03-15T08:17:03;100421.19;;;4.50;92.10
51849;BME280;38952;51.090;-1.832;2023-03-15T08:19:36;100427.78;;;4.54;91.41
51849;BME280;38952;51.090;-1.832;2023-03-15T08:22:02;100439.31;;;4.49;91.17
51849;BME280;38952;51.090;-1.832;2023-03-15T08:24:27;100427.06;;;4.47;91.70
51849;BME280;38952;51.090;-1.832;2023-03-15T08:26:57;100428.25;;;4.51;92.14
51849;BME280;38952;51.090;-1.832;2023-03-15T08:29:22;100436.31;;;4.76;92.38
51849;BME280;38952;51.090;-1.832;2023-03-15T08:31:48;100436.03;;;4.96;92.26
51849;BME280;38952;51.090;-1.832;2023-03-15T08:34:13;100421.91;;;4.94;91.42
51849;BME280;38952;51.090;-1.832;2023-03-15T08:36:40;100431.22;;;4.98;91.18
51849;BME280;38952;51.090;-1.832;2023-03-15T08:39:08;100434.81;;;5.11;90.81
51849;BME280;38952;51.090;-1.832;2023-03-15T08:41:34;100418.44;;;4.87;90.10
51849;BME280;38952;51.090;-1.832;2023-03-15T08:43:59;100432.59;;;4.89;89.89
51849;BME280;38952;51.090;-1.832;2023-03-15T08:46:26;100424.88;;;5.04;91.66
51849;BME280;38952;51.090;-1.832;2023-03-15T08:48:56;100432.28;;;5.28;90.32
51849;BME280;38952;51.090;-1.832;2023-03-15T08:51:29;100432.72;;;5.55;90.13
51849;BME280;38952;51.090;-1.832;2023-03-15T08:53:55;100418.09;;;5.68;89.12
51849;BME280;38952;51.090;-1.832;2023-03-15T08:56:23;100425.38;;;5.98;89.08
51849;BME280;38952;51.090;-1.832;2023-03-15T08:58:51;100421.72;;;6.16;86.62
51849;BME280;38952;51.090;-1.832;2023-03-15T09:01:24;100429.03;;;6.27;85.92
51849;BME280;38952;51.090;-1.832;2023-03-15T09:03:49;100442.44;;;6.69;85.57
51849;BME280;38952;51.090;-1.832;2023-03-15T09:06:16;100431.56;;;7.10;84.58
51849;BME280;38952;51.090;-1.832;2023-03-15T09:08:43;100423.31;;;7.50;83.34
51849;BME280;38952;51.090;-1.832;2023-03-15T09:11:09;100435.84;;;8.02;82.59
51849;BME280;38952;51.090;-1.832;2023-03-15T09:13:34;100437.19;;;8.39;81.06
51849;BME280;38952;51.090;-1.832;2023-03-15T09:16:00;100445.38;;;8.78;80.38
51849;BME280;38952;51.090;-1.832;2023-03-15T09:18:27;100439.47;;;9.08;78.83
51849;BME280;38952;51.090;-1.832;2023-03-15T09:20:53;100442.56;;;9.17;77.51
51849;BME280;38952;51.090;-1.832;2023-03-15T09:23:19;100431.81;;;9.33;76.55
51849;BME280;38952;51.090;-1.832;2023-03-15T09:25:44;100431.25;;;9.31;75.26
51849;BME280;38952;51.090;-1.832;2023-03-15T09:28:10;100433.00;;;9.42;74.88
51849;BME280;38952;51.090;-1.832;2023-03-15T09:30:37;100445.44;;;9.33;72.35
51849;BME280;38952;51.090;-1.832;2023-03-15T09:33:03;100439.88;;;9.22;73.08
51849;BME280;38952;51.090;-1.832;2023-03-15T09:35:29;100446.47;;;9.26;72.22
51849;BME280;38952;51.090;-1.832;2023-03-15T09:37:54;100433.00;;;9.15;71.12
51849;BME280;38952;51.090;-1.832;2023-03-15T09:40:29;100446.56;;;9.09;70.66
51849;BME280;38952;51.090;-1.832;2023-03-15T09:45:54;100456.03;;;8.58;70.50
51849;BME280;38952;51.090;-1.832;2023-03-15T09:48:46;100453.41;;;8.85;71.28
51849;BME280;38952;51.090;-1.832;2023-03-15T09:51:37;100441.09;;;9.09;70.18
51849;BME280;38952;51.090;-1.832;2023-03-15T09:54:09;100441.66;;;9.34;69.11
51849;BME280;38952;51.090;-1.832;2023-03-15T09:56:39;100441.84;;;9.54;67.85
51849;BME280;38952;51.090;-1.832;2023-03-15T09:59:10;100444.38;;;9.34;66.80
51849;BME280;38952;51.090;-1.832;2023-03-15T10:01:39;100452.56;;;9.34;68.09
51849;BME280;38952;51.090;-1.832;2023-03-15T10:04:25;100452.13;;;9.74;67.71
51849;BME280;38952;51.090;-1.832;2023-03-15T10:06:54;100460.38;;;10.17;67.23
51849;BME280;38952;51.090;-1.832;2023-03-15T10:09:26;100461.19;;;10.18;65.04
51849;BME280;38952;51.090;-1.832;2023-03-15T10:12:03;100458.56;;;9.95;64.88
51849;BME280;38952;51.090;-1.832;2023-03-15T10:20:12;100460.69;;;9.29;64.84
51849;BME280;38952;51.090;-1.832;2023-03-15T10:22:59;100459.88;;;9.28;63.82
51849;BME280;38952;51.090;-1.832;2023-03-15T10:25:31;100443.94;;;8.93;64.71
51849;BME280;38952;51.090;-1.832;2023-03-15T10:28:04;100458.88;;;9.12;65.51
51849;BME280;38952;51.090;-1.832;2023-03-15T10:30:36;100461.31;;;9.36;65.79
51849;BME280;38952;51.090;-1.832;2023-03-15T10:35:27;100445.59;;;9.21;63.90
51849;BME280;38952;51.090;-1.832;2023-03-15T10:38:01;100433.53;;;9.39;63.97
51849;BME280;38952;51.090;-1.832;2023-03-15T10:40:49;100452.31;;;9.63;62.45
51849;BME280;38952;51.090;-1.832;2023-03-15T10:43:30;100441.75;;;9.44;62.18
51849;BME280;38952;51.090;-1.832;2023-03-15T10:46:07;100446.88;;;9.68;62.45
51849;BME280;38952;51.090;-1.832;2023-03-15T10:48:59;100439.56;;;9.73;62.43
51849;BME280;38952;51.090;-1.832;2023-03-15T10:51:41;100427.69;;;9.57;60.57
51849;BME280;38952;51.090;-1.832;2023-03-15T10:54:34;100439.81;;;9.72;61.67
51849;BME280;38952;51.090;-1.832;2023-03-15T10:57:12;100436.38;;;9.87;61.51
51849;BME280;38952;51.090;-1.832;2023-03-15T11:00:17;100436.19;;;9.93;61.08
51849;BME280;38952;51.090;-1.832;2023-03-15T11:02:53;100421.38;;;9.89;61.07
51849;BME280;38952;51.090;-1.832;2023-03-15T11:05:40;100431.59;;;9.99;60.54
51849;BME280;38952;51.090;-1.832;2023-03-15T11:08:15;100417.72;;;10.11;61.12
51849;BME280;38952;51.090;-1.832;2023-03-15T11:10:41;100435.47;;;10.46;59.38
51849;BME280;38952;51.090;-1.832;2023-03-15T11:13:19;100434.66;;;10.45;59.64
51849;BME280;38952;51.090;-1.832;2023-03-15T11:19:06;100427.81;;;10.48;60.47
51849;BME280;38952;51.090;-1.832;2023-03-15T11:21:42;100437.44;;;10.61;60.24
51849;BME280;38952;51.090;-1.832;2023-03-15T11:24:32;100431.97;;;10.61;59.10
51849;BME280;38952;51.090;-1.832;2023-03-15T11:27:05;100431.16;;;10.60;58.86
51849;BME280;38952;51.090;-1.832;2023-03-15T11:29:35;100427.28;;;10.51;59.31
51849;BME280;38952;51.090;-1.832;2023-03-15T11:32:17;100417.66;;;10.38;59.87
51849;BME280;38952;51.090;-1.832;2023-03-15T11:34:51;100432.88;;;10.77;59.97
51849;BME280;38952;51.090;-1.832;2023-03-15T11:37:24;100424.63;;;10.67;60.05
51849;BME280;38952;51.090;-1.832;2023-03-15T11:40:09;100422.38;;;10.58;60.19
51849;BME280;38952;51.090;-1.832;2023-03-15T11:45:15;100434.66;;;10.51;60.70
51849;BME280;38952;51.090;-1.832;2023-03-15T11:48:30;100426.75;;;10.54;60.78
51849;BME280;38952;51.090;-1.832;2023-03-15T11:50:36;100441.53;;;10.53;60.74
51849;BME280;38952;51.090;-1.832;2023-03-15T11:53:01;100425.59;;;10.40;60.24
51849;BME280;38952;51.090;-1.832;2023-03-15T11:55:31;100420.47;;;10.16;61.23
51849;BME280;38952;51.090;-1.832;2023-03-15T11:58:41;100420.06;;;9.92;61.63
51849;BME280;38952;51.090;-1.832;2023-03-15T12:01:09;100397.34;;;9.54;62.61
51849;BME280;38952;51.090;-1.832;2023-03-15T12:03:42;100406.34;;;9.49;62.99
51849;BME280;38952;51.090;-1.832;2023-03-15T12:08:53;100415.38;;;9.87;63.63
51849;BME280;38952;51.090;-1.832;2023-03-15T12:16:26;100396.75;;;9.19;66.59
51849;BME280;38952;51.090;-1.832;2023-03-15T12:19:07;100398.13;;;8.95;68.22
51849;BME280;38952;51.090;-1.832;2023-03-15T12:21:49;100395.97;;;8.97;69.31
51849;BME280;38952;51.090;-1.832;2023-03-15T12:24:29;100392.78;;;9.32;69.93
51849;BME280;38952;51.090;-1.832;2023-03-15T12:27:14;100399.75;;;9.50;70.01
51849;BME280;38952;51.090;-1.832;2023-03-15T12:29:43;100388.84;;;9.50;69.73
51849;BME280;38952;51.090;-1.832;2023-03-15T12:32:24;100365.94;;;9.51;69.42
51849;BME280;38952;51.090;-1.832;2023-03-15T12:34:53;100392.50;;;9.99;68.98
51849;BME280;38952;51.090;-1.832;2023-03-15T12:55:57;100369.53;;;11.42;62.38
51849;BME280;38952;51.090;-1.832;2023-03-15T12:58:34;100363.22;;;11.10;63.99
51849;BME280;38952;51.090;-1.832;2023-03-15T13:01:03;100365.63;;;10.91;65.52
51849;BME280;38952;51.090;-1.832;2023-03-15T13:03:35;100349.13;;;10.60;66.26
51849;BME280;38952;51.090;-1.832;2023-03-15T13:11:35;100342.66;;;10.97;67.83
51849;BME280;38952;51.090;-1.832;2023-03-15T13:17:04;100333.38;;;11.50;65.42
51849;BME280;38952;51.090;-1.832;2023-03-15T13:19:50;100330.06;;;11.84;65.25
51849;BME280;38952;51.090;-1.832;2023-03-15T13:33:36;100298.00;;;10.66;65.58
51849;BME280;38952;51.090;-1.832;2023-03-15T13:36:14;100299.09;;;10.02;68.54
51849;BME280;38952;51.090;-1.832;2023-03-15T13:38:54;100274.47;;;9.49;71.47
51849;BME280;38952;51.090;-1.832;2023-03-15T13:44:29;100269.56;;;8.81;73.77
51849;BME280;38952;51.090;-1.832;2023-03-15T13:47:18;100269.06;;;8.39;75.18
51849;BME280;38952;51.090;-1.832;2023-03-15T13:50:05;100289.94;;;8.29;77.23
51849;BME280;38952;51.090;-1.832;2023-03-15T13:52:49;100288.03;;;8.07;78.31
51849;BME280;38952;51.090;-1.832;2023-03-15T13:55:41;100291.56;;;7.85;79.74
51849;BME280;38952;51.090;-1.832;2023-03-15T13:58:17;100251.19;;;7.60;80.74
51849;BME280;38952;51.090;-1.832;2023-03-15T14:00:43;100257.28;;;7.67;81.34
51849;BME280;38952;51.090;-1.832;2023-03-15T14:03:20;100255.63;;;7.66;81.68
51849;BME280;38952;51.090;-1.832;2023-03-15T14:05:51;100249.63;;;7.64;82.84
51849;BME280;38952;51.090;-1.832;2023-03-15T14:08:32;100264.69;;;7.72;83.59
51849;BME280;38952;51.090;-1.832;2023-03-15T14:13:55;100262.56;;;7.74;84.70
51849;BME280;38952;51.090;-1.832;2023-03-15T14:16:46;100253.81;;;7.72;85.61
51849;BME280;38952;51.090;-1.832;2023-03-15T14:19:16;100255.88;;;7.65;87.52